createdAt,value
2019-03-15T00:01:45.695Z,93032.22
2019-03-15T00:04:14.345Z,93032.83
2019-03-15T00:06:43.002Z,93042.19
2019-03-15T00:09:11.616Z,93048.31
2019-03-15T00:11:40.285Z,93058.75
2019-03-15T00:14:08.895Z,93062.97
2019-03-15T00:16:37.586Z,93073.58
2019-03-15T00:19:06.199Z,93071.91
2019-03-15T00:21:34.868Z,93080.77
2019-03-15T00:24:03.672Z,93077.83
2019-03-15T00:26:32.351Z,93078.31
2019-03-15T00:29:01.091Z,93083.03
2019-03-15T00:31:29.710Z,93092.11
2019-03-15T00:33:58.385Z,93086.30
2019-03-15T00:36:27.007Z,93091.51
2019-03-15T00:38:55.686Z,93090.22
2019-03-15T00:41:24.300Z,93096.79
2019-03-15T00:43:52.974Z,93094.03
2019-03-15T00:46:21.637Z,93106.38
2019-03-15T00:48:50.305Z,93104.94
2019-03-15T00:51:18.911Z,93107.39
2019-03-15T00:53:47.518Z,93102.16
2019-03-15T00:56:16.190Z,93096.66
2019-03-15T00:58:44.902Z,93107.91
2019-03-15T01:01:13.809Z,93109.68
2019-03-15T01:03:44.605Z,93108.39
2019-03-15T01:06:13.282Z,93117.96
2019-03-15T01:08:41.954Z,93113.52
2019-03-15T01:11:10.615Z,93109.08
2019-03-15T01:13:39.320Z,93113.44
2019-03-15T01:16:08.943Z,93113.33
2019-03-15T01:18:37.861Z,93110.77
2019-03-15T01:21:06.474Z,93111.17
2019-03-15T01:23:35.140Z,93102.29
2019-03-15T01:26:03.797Z,93116.30
2019-03-15T01:28:32.403Z,93109.51
2019-03-15T01:31:01.072Z,93121.64
2019-03-15T01:33:29.772Z,93123.49
2019-03-15T01:35:58.396Z,93132.13
2019-03-15T01:38:27.044Z,93134.42
2019-03-15T01:40:55.656Z,93133.20
2019-03-15T01:43:24.331Z,93129.55
2019-03-15T01:45:53.109Z,93121.59
2019-03-15T01:48:21.781Z,93132.44
2019-03-15T01:50:50.540Z,93131.56
2019-03-15T01:53:19.282Z,93130.25
2019-03-15T01:55:47.890Z,93132.24
2019-03-15T01:58:16.597Z,93140.01
2019-03-15T02:00:45.212Z,93151.72
2019-03-15T02:03:13.918Z,93159.52
2019-03-15T02:05:42.567Z,93143.20
2019-03-15T02:08:11.201Z,93159.28
2019-03-15T02:10:39.907Z,93144.84
2019-03-15T02:13:08.566Z,93150.47
2019-03-15T02:15:37.192Z,93135.52
2019-03-15T02:18:05.877Z,93145.66
2019-03-15T02:20:34.556Z,93153.26
2019-03-15T02:23:03.168Z,93158.95
2019-03-15T02:25:31.784Z,93168.15
2019-03-15T02:28:00.573Z,93159.73
2019-03-15T02:30:29.198Z,93156.47
2019-03-15T02:32:57.902Z,93167.31
2019-03-15T02:35:26.566Z,93169.15
2019-03-15T02:37:55.266Z,93171.73
2019-03-15T02:40:23.877Z,93164.33
2019-03-15T02:42:53.133Z,93173.45
2019-03-15T02:45:22.050Z,93169.42
2019-03-15T02:47:50.720Z,93174.63
2019-03-15T02:50:19.366Z,93177.67
2019-03-15T02:52:48.294Z,93183.89
2019-03-15T02:55:17.114Z,93182.84
2019-03-15T02:57:46.934Z,93187.77
2019-03-15T03:00:15.603Z,93181.86
2019-03-15T03:02:44.226Z,93175.00
2019-03-15T03:05:12.889Z,93180.34
2019-03-15T03:07:41.603Z,93186.05
2019-03-15T03:10:10.427Z,93190.00
2019-03-15T03:12:39.044Z,93191.88
2019-03-15T03:15:08.415Z,93200.44
2019-03-15T03:17:37.093Z,93201.41
2019-03-15T03:20:07.172Z,93200.61
2019-03-15T03:22:36.346Z,93200.09
2019-03-15T03:25:05.985Z,93192.59
2019-03-15T03:27:34.661Z,93200.88
2019-03-15T03:30:03.333Z,93191.66
2019-03-15T03:32:32.090Z,93185.17
2019-03-15T03:35:01.043Z,93186.08
2019-03-15T03:37:29.944Z,93207.97
2019-03-15T03:39:58.631Z,93210.30
2019-03-15T03:42:27.312Z,93219.16
2019-03-15T03:44:56.029Z,93226.53
2019-03-15T03:47:24.751Z,93225.63
2019-03-15T03:49:53.638Z,93255.20
2019-03-15T03:52:22.695Z,93252.50
2019-03-15T03:54:51.309Z,93261.33
2019-03-15T03:57:19.939Z,93245.50
2019-03-15T03:59:48.602Z,93252.02
2019-03-15T04:02:17.232Z,93246.70
2019-03-15T04:04:45.882Z,93252.09
2019-03-15T04:07:14.557Z,93265.43
2019-03-15T04:09:43.170Z,93282.11
2019-03-15T04:12:11.846Z,93290.64
2019-03-15T04:14:40.484Z,93294.98
2019-03-15T04:17:09.160Z,93301.80
2019-03-15T04:19:37.774Z,93305.10
2019-03-15T04:22:06.588Z,93297.97
2019-03-15T04:24:35.264Z,93307.66
2019-03-15T04:27:03.876Z,93306.88
2019-03-15T04:29:32.567Z,93310.30
2019-03-15T04:32:01.658Z,93314.38
2019-03-15T04:34:30.235Z,93318.22
2019-03-15T04:36:58.851Z,93331.52
2019-03-15T04:39:27.560Z,93340.11
2019-03-15T04:41:56.181Z,93341.75
2019-03-15T04:44:24.853Z,93346.39
2019-03-15T04:46:54.523Z,93345.17
2019-03-15T04:49:23.175Z,93342.55
2019-03-15T04:51:51.854Z,93349.14
2019-03-15T04:54:20.455Z,93354.77
2019-03-15T04:56:49.306Z,93365.69
2019-03-15T04:59:17.916Z,93364.34
2019-03-15T05:01:46.998Z,93356.14
2019-03-15T05:04:15.698Z,93368.83
2019-03-15T05:06:44.302Z,93374.20
2019-03-15T05:09:12.984Z,93375.42
2019-03-15T05:11:41.625Z,93370.32
2019-03-15T05:14:10.248Z,93372.63
2019-03-15T05:16:38.925Z,93380.86
2019-03-15T05:19:07.555Z,93381.79
2019-03-15T05:21:36.267Z,93389.41
2019-03-15T05:24:04.898Z,93376.78
2019-03-15T05:26:33.571Z,93384.77
2019-03-15T05:29:02.181Z,93399.48
2019-03-15T05:31:30.856Z,93410.03
2019-03-15T05:33:59.533Z,93399.17
2019-03-15T05:36:28.135Z,93405.63
2019-03-15T05:38:56.812Z,93409.73
2019-03-15T05:41:25.423Z,93407.91
2019-03-15T05:43:54.317Z,93408.28
2019-03-15T05:46:24.986Z,93411.24
2019-03-15T05:48:53.688Z,93412.25
2019-03-15T05:51:22.521Z,93411.99
2019-03-15T05:53:51.191Z,93410.36
2019-03-15T05:56:19.817Z,93412.81
2019-03-15T05:58:48.496Z,93419.23
2019-03-15T06:01:17.118Z,93431.77
2019-03-15T06:03:49.133Z,93420.10
2019-03-15T06:06:17.790Z,93426.45
2019-03-15T06:08:46.491Z,93436.47
2019-03-15T06:11:15.135Z,93440.49
2019-03-15T06:13:43.802Z,93438.86
2019-03-15T06:16:12.413Z,93431.76
2019-03-15T06:18:41.121Z,93442.20
2019-03-15T06:21:09.729Z,93456.80
2019-03-15T06:23:38.419Z,93461.25
2019-03-15T06:26:07.045Z,93453.36
2019-03-15T06:28:35.721Z,93467.19
2019-03-15T06:31:04.400Z,93468.66
2019-03-15T06:33:33.056Z,93462.24
2019-03-15T06:36:01.824Z,93471.13
2019-03-15T06:38:33.378Z,93487.89
2019-03-15T06:41:01.002Z,93488.31
2019-03-15T06:43:29.681Z,93500.02
2019-03-15T06:46:00.602Z,93493.72
2019-03-15T06:48:29.225Z,93498.87
2019-03-15T06:50:57.902Z,93498.08
2019-03-15T06:53:26.643Z,93498.41
2019-03-15T06:55:55.312Z,93497.67
2019-03-15T06:58:23.932Z,93505.95
2019-03-15T07:00:54.763Z,93513.95
2019-03-15T07:03:22.958Z,93507.58
2019-03-15T07:05:51.634Z,93513.88
2019-03-15T07:08:20.256Z,93510.70
2019-03-15T07:10:48.961Z,93505.45
2019-03-15T07:13:17.585Z,93489.72
2019-03-15T07:15:46.252Z,93468.01
2019-03-15T07:18:18.228Z,93472.99
2019-03-15T07:20:45.279Z,93481.87
2019-03-15T07:23:13.940Z,93485.27
2019-03-15T07:25:42.610Z,93484.92
2019-03-15T07:28:11.216Z,93480.70
2019-03-15T07:30:39.924Z,93489.16
2019-03-15T07:33:08.606Z,93499.08
2019-03-15T07:35:37.319Z,93495.88
2019-03-15T07:38:05.939Z,93493.80
2019-03-15T07:40:34.583Z,93497.35
2019-03-15T07:43:04.985Z,93502.00
2019-03-15T07:45:33.662Z,93512.61
2019-03-15T07:48:02.301Z,93529.19
2019-03-15T07:50:30.976Z,93525.41
2019-03-15T07:53:01.767Z,93535.19
2019-03-15T07:55:30.086Z,93534.02
2019-03-15T07:57:58.770Z,93522.20
2019-03-15T08:00:27.462Z,93535.48
2019-03-15T08:02:56.099Z,93523.09
2019-03-15T08:05:26.106Z,93535.30
2019-03-15T08:07:54.807Z,93537.34
2019-03-15T08:10:23.756Z,93544.41
2019-03-15T08:12:52.681Z,93551.58
2019-03-15T08:15:21.365Z,93547.16
2019-03-15T08:17:50.029Z,93547.33
2019-03-15T08:20:18.738Z,93560.23
2019-03-15T08:22:47.340Z,93559.93
2019-03-15T08:25:16.071Z,93566.69
2019-03-15T08:27:44.717Z,93550.44
2019-03-15T08:30:17.160Z,93554.80
2019-03-15T08:32:45.777Z,93551.79
2019-03-15T08:35:14.419Z,93565.12
2019-03-15T08:37:43.104Z,93563.13
2019-03-15T08:40:15.308Z,93552.27
2019-03-15T08:42:43.999Z,93553.83
2019-03-15T08:45:20.088Z,93568.87
2019-03-15T08:47:48.773Z,93563.44
2019-03-15T08:50:18.572Z,93568.97
2019-03-15T08:52:47.269Z,93565.91
2019-03-15T08:55:15.887Z,93571.36
2019-03-15T08:57:44.560Z,93578.69
2019-03-15T09:00:16.204Z,93581.47
2019-03-15T09:02:44.881Z,93584.02
2019-03-15T09:05:16.954Z,93606.50
2019-03-15T09:07:45.663Z,93608.06
2019-03-15T09:10:23.130Z,93595.20
2019-03-15T09:12:49.004Z,93597.97
2019-03-15T09:15:17.672Z,93595.22
2019-03-15T09:17:48.329Z,93602.14
2019-03-15T09:20:16.723Z,93601.16
2019-03-15T09:22:46.789Z,93591.13
2019-03-15T09:25:20.238Z,93603.13
2019-03-15T09:27:47.722Z,93593.84
2019-03-15T09:30:23.799Z,93603.63
2019-03-15T09:32:47.728Z,93606.59
2019-03-15T09:35:16.433Z,93605.28
2019-03-15T09:37:47.306Z,93605.05
2019-03-15T09:40:16.120Z,93607.37
2019-03-15T09:42:44.819Z,93610.39
2019-03-15T09:45:18.217Z,93605.46
2019-03-15T09:47:46.939Z,93609.68
2019-03-15T09:50:26.438Z,93604.18
2019-03-15T09:52:46.932Z,93606.83
2019-03-15T09:55:15.708Z,93596.84
2019-03-15T09:57:44.392Z,93604.20
2019-03-15T10:00:22.625Z,93603.68
2019-03-15T10:02:51.300Z,93596.28
2019-03-15T10:05:19.980Z,93595.20
2019-03-15T10:07:48.657Z,93593.80
2019-03-15T10:10:19.206Z,93597.27
2019-03-15T10:12:48.128Z,93593.83
2019-03-15T10:15:17.728Z,93596.42
2019-03-15T10:17:47.641Z,93589.48
2019-03-15T10:20:17.037Z,93592.52
2019-03-15T10:22:45.813Z,93593.41
2019-03-15T10:25:16.463Z,93598.16
2019-03-15T10:27:45.124Z,93573.89
2019-03-15T10:30:20.609Z,93577.41
2019-03-15T10:32:49.282Z,93575.40
2019-03-15T10:35:17.988Z,93571.84
2019-03-15T10:37:46.696Z,93583.74
2019-03-15T10:40:22.650Z,93584.22
2019-03-15T10:42:51.455Z,93580.45
2019-03-15T10:45:20.836Z,93578.88
2019-03-15T10:47:49.698Z,93578.76
2019-03-15T10:50:19.306Z,93574.41
2019-03-15T10:52:47.978Z,93566.91
2019-03-15T10:55:20.486Z,93566.09
2019-03-15T10:57:47.517Z,93572.47
2019-03-15T11:00:20.073Z,93572.34
2019-03-15T11:02:48.794Z,93572.66
2019-03-15T11:05:17.537Z,93574.64
2019-03-15T11:07:46.139Z,93575.83
2019-03-15T11:10:15.177Z,93562.95
2019-03-15T11:12:43.967Z,93563.75
2019-03-15T11:15:14.551Z,93557.40
2019-03-15T11:17:43.246Z,93565.52
2019-03-15T11:20:12.562Z,93555.94
2019-03-15T11:22:41.201Z,93561.35
2019-03-15T11:25:11.830Z,93556.30
2019-03-15T11:27:40.448Z,93558.06
2019-03-15T11:30:11.687Z,93553.64
2019-03-15T11:32:40.373Z,93549.47
2019-03-15T11:35:10.935Z,93550.38
2019-03-15T11:37:39.532Z,93545.64
2019-03-15T11:40:13.883Z,93547.98
2019-03-15T11:42:41.237Z,93540.77
2019-03-15T11:45:11.169Z,93538.98
2019-03-15T11:48:00.552Z,93547.47
2019-03-15T11:50:14.145Z,93548.68
2019-03-15T11:52:42.812Z,93542.75
2019-03-15T11:55:11.503Z,93539.77
2019-03-15T11:57:40.119Z,93525.22
2019-03-15T12:00:16.197Z,93527.09
2019-03-15T12:02:44.786Z,93514.13
2019-03-15T12:05:13.766Z,93514.09
2019-03-15T12:07:42.393Z,93507.98
2019-03-15T12:10:18.149Z,93509.17
2019-03-15T12:12:46.858Z,93504.53
2019-03-15T12:15:18.278Z,93503.12
2019-03-15T12:17:46.957Z,93498.55
2019-03-15T12:20:15.839Z,93501.91
2019-03-15T12:22:44.565Z,93489.03
2019-03-15T12:25:16.245Z,93493.89
2019-03-15T12:27:44.861Z,93491.45
2019-03-15T12:30:17.874Z,93498.45
2019-03-15T12:32:46.488Z,93491.75
2019-03-15T12:35:16.240Z,93499.87
2019-03-15T12:37:44.892Z,93493.30
2019-03-15T12:40:18.542Z,93496.07
2019-03-15T12:42:47.191Z,93493.59
2019-03-15T12:45:16.387Z,93502.34
2019-03-15T12:47:46.633Z,93487.50
2019-03-15T12:50:16.145Z,93498.55
2019-03-15T12:52:48.759Z,93494.48
2019-03-15T12:55:20.717Z,93496.66
2019-03-15T12:57:51.873Z,93507.00
2019-03-15T13:00:21.198Z,93495.77
2019-03-15T13:02:51.500Z,93494.83
2019-03-15T13:05:20.296Z,93490.70
2019-03-15T13:07:56.759Z,93485.05
2019-03-15T13:10:25.475Z,93488.55
2019-03-15T13:12:54.120Z,93488.34
2019-03-15T13:15:22.752Z,93480.23
2019-03-15T13:17:52.080Z,93487.85
2019-03-15T13:20:20.979Z,93482.61
2019-03-15T13:22:49.610Z,93475.28
2019-03-15T13:25:18.348Z,93476.87
2019-03-15T13:27:47.045Z,93480.53
2019-03-15T13:30:17.270Z,93479.41
2019-03-15T13:32:47.486Z,93478.75
2019-03-15T13:35:16.186Z,93487.08
2019-03-15T13:37:46.487Z,93478.86
2019-03-15T13:40:18.890Z,93486.28
2019-03-15T13:42:50.501Z,93488.84
2019-03-15T13:45:19.237Z,93493.20
2019-03-15T13:47:47.856Z,93488.06
2019-03-15T13:50:18.818Z,93490.73
2019-03-15T13:52:47.490Z,93497.84
2019-03-15T13:55:16.176Z,93499.73
2019-03-15T13:57:47.827Z,93494.00
2019-03-15T14:00:17.845Z,93498.45
2019-03-15T14:02:49.734Z,93492.48
2019-03-15T14:05:18.543Z,93496.15
2019-03-15T14:07:47.227Z,93495.86
2019-03-15T14:10:17.988Z,93489.84
2019-03-15T14:12:46.944Z,93492.70
2019-03-15T14:15:18.302Z,93495.09
2019-03-15T14:17:48.459Z,93484.19
2019-03-15T14:20:17.301Z,93484.69
2019-03-15T14:22:46.041Z,93492.78
2019-03-15T14:25:23.335Z,93486.25
2019-03-15T14:27:57.821Z,93484.59
2019-03-15T14:30:26.641Z,93481.63
2019-03-15T14:32:55.348Z,93485.77
2019-03-15T14:35:25.069Z,93481.12
2019-03-15T14:37:53.971Z,93487.23
2019-03-15T14:40:22.760Z,93484.67
2019-03-15T14:42:51.463Z,93471.03
2019-03-15T14:45:21.385Z,93488.16
2019-03-15T14:47:53.732Z,93480.12
2019-03-15T14:50:22.113Z,93484.28
2019-03-15T14:52:50.751Z,93469.66
2019-03-15T14:55:22.502Z,93467.96
2019-03-15T14:57:53.612Z,93480.89
2019-03-15T15:00:22.485Z,93470.14
2019-03-15T15:02:51.182Z,93479.34
2019-03-15T15:05:21.227Z,93484.55
2019-03-15T15:07:49.902Z,93467.97
2019-03-15T15:10:19.225Z,93474.78
2019-03-15T15:12:47.839Z,93464.80
2019-03-15T15:15:18.746Z,93462.89
2019-03-15T15:17:47.447Z,93470.61
2019-03-15T15:20:18.029Z,93470.05
2019-03-15T15:22:48.783Z,93479.61
2019-03-15T15:25:22.962Z,93465.69
2019-03-15T15:28:03.797Z,93465.69
2019-03-15T15:30:24.959Z,93470.44
2019-03-15T15:32:55.650Z,93470.75
2019-03-15T15:35:24.559Z,93472.62
2019-03-15T15:37:53.350Z,93476.46
2019-03-15T15:40:23.882Z,93477.47
2019-03-15T15:42:52.637Z,93471.94
2019-03-15T15:45:21.325Z,93472.92
2019-03-15T15:47:50.012Z,93473.22
2019-03-15T15:50:18.988Z,93464.82
2019-03-15T15:52:47.758Z,93459.38
2019-03-15T15:55:17.104Z,93451.94
2019-03-15T15:57:45.934Z,93454.33
2019-03-15T16:00:18.507Z,93458.08
2019-03-15T16:02:47.353Z,93462.42
2019-03-15T16:05:16.168Z,93472.31
2019-03-15T16:07:45.041Z,93469.52
2019-03-15T16:10:17.912Z,93458.66
2019-03-15T16:12:45.469Z,93466.56
2019-03-15T16:15:18.369Z,93464.89
2019-03-15T16:17:47.273Z,93464.79
2019-03-15T16:20:17.816Z,93461.14
2019-03-15T16:22:47.966Z,93456.59
2019-03-15T16:25:16.857Z,93459.53
2019-03-15T16:27:45.608Z,93464.08
2019-03-15T16:30:22.402Z,93466.84
2019-03-15T16:32:52.870Z,93470.00
2019-03-15T16:35:21.740Z,93458.74
2019-03-15T16:37:53.404Z,93472.27
2019-03-15T16:40:22.025Z,93465.56
2019-03-15T16:42:50.896Z,93469.60
2019-03-15T16:45:30.360Z,93472.88
2019-03-15T16:47:59.297Z,93472.10
2019-03-15T16:50:29.988Z,93473.08
2019-03-15T16:52:58.684Z,93470.09
2019-03-15T16:55:27.400Z,93478.10
2019-03-15T16:57:56.144Z,93478.52
2019-03-15T17:00:24.767Z,93477.52
2019-03-15T17:02:54.184Z,93486.59
2019-03-15T17:05:22.820Z,93486.27
2019-03-15T17:07:53.492Z,93481.33
2019-03-15T17:10:23.686Z,93488.29
2019-03-15T17:12:55.636Z,93485.70
2019-03-15T17:15:25.268Z,93478.59
2019-03-15T17:17:53.965Z,93486.69
2019-03-15T17:20:22.588Z,93484.87
2019-03-15T17:22:51.222Z,93482.31
2019-03-15T17:25:20.027Z,93479.55
2019-03-15T17:27:48.641Z,93483.10
2019-03-15T17:30:17.825Z,93488.23
2019-03-15T17:32:46.447Z,93492.09
2019-03-15T17:35:20.526Z,93489.11
2019-03-15T17:37:49.139Z,93494.20
2019-03-15T17:40:19.197Z,93497.64
2019-03-15T17:42:47.830Z,93499.31
2019-03-15T17:45:16.549Z,93503.23
2019-03-15T17:47:45.266Z,93506.22
2019-03-15T17:50:24.274Z,93515.70
2019-03-15T17:52:52.931Z,93525.78
2019-03-15T17:55:21.707Z,93509.28
2019-03-15T17:57:50.331Z,93522.61
2019-03-15T18:00:25.964Z,93514.26
2019-03-15T18:02:54.622Z,93515.92
2019-03-15T18:05:23.304Z,93527.18
2019-03-15T18:07:52.147Z,93521.55
2019-03-15T18:10:22.502Z,93525.67
2019-03-15T18:12:51.457Z,93526.20
2019-03-15T18:15:20.861Z,93525.22
2019-03-15T18:17:49.668Z,93516.57
2019-03-15T18:20:18.707Z,93517.85
2019-03-15T18:22:49.344Z,93522.91
2019-03-15T18:25:18.299Z,93525.25
2019-03-15T18:27:49.354Z,93520.31
2019-03-15T18:30:18.766Z,93517.93
2019-03-15T18:32:47.525Z,93530.47
2019-03-15T18:35:17.586Z,93519.93
2019-03-15T18:37:47.934Z,93511.55
2019-03-15T18:40:26.577Z,93521.82
2019-03-15T18:42:51.205Z,93520.34
2019-03-15T18:45:19.951Z,93521.03
2019-03-15T18:47:51.463Z,93525.38
2019-03-15T18:50:22.723Z,93519.70
2019-03-15T18:52:51.782Z,93529.59
2019-03-15T18:55:20.641Z,93538.06
2019-03-15T18:57:49.264Z,93528.73
2019-03-15T19:00:21.109Z,93531.11
2019-03-15T19:02:49.864Z,93533.57
2019-03-15T19:05:20.290Z,93528.77
2019-03-15T19:07:51.305Z,93534.70
2019-03-15T19:10:20.044Z,93533.48
2019-03-15T19:12:48.670Z,93529.83
2019-03-15T19:15:21.684Z,93528.31
2019-03-15T19:17:50.343Z,93529.52
2019-03-15T19:20:18.982Z,93534.81
2019-03-15T19:22:47.676Z,93510.78
2019-03-15T19:25:16.758Z,93528.84
2019-03-15T19:27:45.640Z,93534.09
2019-03-15T19:30:16.398Z,93529.67
2019-03-15T19:32:45.135Z,93533.52
2019-03-15T19:35:14.061Z,93535.68
2019-03-15T19:37:43.222Z,93540.17
2019-03-15T19:40:19.428Z,93539.61
2019-03-15T19:42:49.725Z,93536.55
2019-03-15T19:45:18.540Z,93538.10
2019-03-15T19:47:47.334Z,93539.80
2019-03-15T19:50:21.359Z,93536.73
2019-03-15T19:52:50.172Z,93541.08
2019-03-15T19:55:19.063Z,93538.02
2019-03-15T19:57:47.833Z,93538.70
2019-03-15T20:00:23.148Z,93535.75
2019-03-15T20:02:52.130Z,93539.91
2019-03-15T20:05:21.151Z,93539.50
2019-03-15T20:07:50.359Z,93543.66
2019-03-15T20:10:19.498Z,93525.18
2019-03-15T20:12:48.171Z,93536.59
2019-03-15T20:15:17.512Z,93537.00
2019-03-15T20:17:46.405Z,93543.42
2019-03-15T20:20:19.269Z,93536.02
2019-03-15T20:22:48.152Z,93530.99
2019-03-15T20:25:17.663Z,93531.48
2019-03-15T20:27:46.415Z,93532.28
2019-03-15T20:30:26.899Z,93527.97
2019-03-15T20:32:55.852Z,93536.17
2019-03-15T20:35:24.595Z,93537.95
2019-03-15T20:37:53.237Z,93540.89
2019-03-15T20:40:22.051Z,93537.53
2019-03-15T20:42:50.738Z,93534.28
2019-03-15T20:45:22.436Z,93534.28
2019-03-15T20:47:53.909Z,93539.04
2019-03-15T20:50:22.639Z,93540.52
2019-03-15T20:52:51.369Z,93534.81
2019-03-15T20:58:51.863Z,93544.59
2019-03-15T21:01:20.587Z,93544.17
2019-03-15T21:03:55.952Z,93544.94
2019-03-15T21:06:21.409Z,93539.31
2019-03-15T21:08:51.851Z,93551.51
2019-03-15T21:11:20.787Z,93556.87
2019-03-15T21:13:49.976Z,93551.27
2019-03-15T21:16:19.048Z,93550.17
2019-03-15T21:18:48.353Z,93560.80
2019-03-15T21:21:19.625Z,93560.72
2019-03-15T21:23:48.660Z,93549.88
2019-03-15T21:26:18.122Z,93549.19
2019-03-15T21:28:46.949Z,93555.59
2019-03-15T21:31:15.778Z,93557.14
2019-03-15T21:33:45.446Z,93560.42
2019-03-15T21:36:14.178Z,93555.96
2019-03-15T21:38:48.216Z,93558.34
2019-03-15T21:41:13.427Z,93557.25
2019-03-15T21:43:42.143Z,93561.44
2019-03-15T21:46:10.979Z,93560.91
2019-03-15T21:48:39.722Z,93557.02
2019-03-15T21:51:08.418Z,93556.04
2019-03-15T21:53:37.462Z,93552.30
2019-03-15T21:56:06.164Z,93561.70
2019-03-15T21:58:34.907Z,93562.98
2019-03-15T22:01:03.768Z,93560.12
2019-03-15T22:03:32.408Z,93563.48
2019-03-15T22:06:01.060Z,93564.69
2019-03-15T22:08:30.638Z,93561.14
2019-03-15T22:10:59.379Z,93561.89
2019-03-15T22:13:28.037Z,93562.53
2019-03-15T22:15:57.910Z,93575.27
2019-03-15T22:18:26.625Z,93573.52
2019-03-15T22:20:55.746Z,93565.63
2019-03-15T22:23:24.725Z,93554.85
2019-03-15T22:25:53.500Z,93552.66
2019-03-15T22:28:22.148Z,93561.70
2019-03-15T22:30:50.856Z,93564.47
2019-03-15T22:33:20.157Z,93567.18
2019-03-15T22:35:48.918Z,93563.10
2019-03-15T22:38:26.213Z,93549.34
2019-03-15T22:40:48.238Z,93551.89
2019-03-15T22:43:16.945Z,93550.91
2019-03-15T22:45:45.647Z,93551.23
2019-03-15T22:48:14.265Z,93547.77
2019-03-15T22:50:42.955Z,93552.66
2019-03-15T22:53:11.563Z,93541.10
2019-03-15T22:55:41.111Z,93557.61
2019-03-15T22:58:09.824Z,93554.55
2019-03-15T23:00:38.863Z,93556.33
2019-03-15T23:03:07.639Z,93556.27
2019-03-15T23:05:36.335Z,93555.86
2019-03-15T23:08:07.043Z,93552.39
2019-03-15T23:10:36.093Z,93548.67
2019-03-15T23:13:04.817Z,93555.30
2019-03-15T23:15:34.895Z,93560.26
2019-03-15T23:18:05.257Z,93554.73
2019-03-15T23:20:34.237Z,93565.11
2019-03-15T23:23:03.498Z,93563.13
2019-03-15T23:25:32.498Z,93560.86
2019-03-15T23:28:01.137Z,93570.36
2019-03-15T23:30:29.759Z,93556.91
2019-03-15T23:32:58.638Z,93553.83
2019-03-15T23:35:27.255Z,93562.55
2019-03-15T23:37:55.938Z,93555.44
2019-03-15T23:40:25.873Z,93556.21
2019-03-15T23:42:54.500Z,93558.38
2019-03-15T23:45:23.200Z,93549.88
2019-03-15T23:47:51.933Z,93555.73
2019-03-15T23:50:20.617Z,93552.75
2019-03-15T23:52:50.090Z,93550.39
2019-03-15T23:55:18.707Z,93553.45
2019-03-15T23:57:47.358Z,93552.25
